sensor_id;sensor_type;location;lat;lon;timestamp;P1;durP1;ratioP1;P2;durP2;ratioP2
12038;SDS011;6080;48.818;9.526;2022-07-29T00:00:59;25.10;;;23.37;;
12038;SDS011;6080;48.818;9.526;2022-07-29T00:03:26;15.13;;;13.60;;
12038;SDS011;6080;48.818;9.526;2022-07-29T00:05:52;14.20;;;12.90;;
12038;SDS011;6080;48.818;9.526;2022-07-29T00:08:18;15.13;;;14.13;;
12038;SDS011;6080;48.818;9.526;2022-07-29T00:10:46;15.03;;;13.77;;
12038;SDS011;6080;48.818;9.526;2022-07-29T00:13:12;78.77;;;74.17;;
12038;SDS011;6080;48.818;9.526;2022-07-29T00:15:38;69.57;;;65.47;;
12038;SDS011;6080;48.818;9.526;2022-07-29T00:18:03;29.80;;;28.00;;
12038;SDS011;6080;48.818;9.526;2022-07-29T00:20:29;32.67;;;30.67;;
12038;SDS011;6080;48.818;9.526;2022-07-29T00:22:55;28.67;;;26.77;;
12038;SDS011;6080;48.818;9.526;2022-07-29T00:25:21;40.70;;;38.47;;
12038;SDS011;6080;48.818;9.526;2022-07-29T00:27:47;48.40;;;45.50;;
12038;SDS011;6080;48.818;9.526;2022-07-29T00:30:13;35.80;;;33.70;;
12038;SDS011;6080;48.818;9.526;2022-07-29T00:32:39;200.80;;;189.97;;
12038;SDS011;6080;48.818;9.526;2022-07-29T00:35:05;215.70;;;204.00;;
12038;SDS011;6080;48.818;9.526;2022-07-29T00:37:50;200.00;;;188.87;;
12038;SDS011;6080;48.818;9.526;2022-07-29T00:40:16;250.43;;;236.43;;
12038;SDS011;6080;48.818;9.526;2022-07-29T00:42:43;318.63;;;300.25;;
12038;SDS011;6080;48.818;9.526;2022-07-29T00:45:13;406.60;;;381.40;;
12038;SDS011;6080;48.818;9.526;2022-07-29T00:47:39;222.27;;;209.57;;
12038;SDS011;6080;48.818;9.526;2022-07-29T00:50:06;285.33;;;268.70;;
12038;SDS011;6080;48.818;9.526;2022-07-29T00:52:34;39.73;;;37.33;;
12038;SDS011;6080;48.818;9.526;2022-07-29T00:55:02;37.50;;;34.93;;
12038;SDS011;6080;48.818;9.526;2022-07-29T00:57:29;43.33;;;40.83;;
12038;SDS011;6080;48.818;9.526;2022-07-29T00:59:55;251.77;;;236.57;;
12038;SDS011;6080;48.818;9.526;2022-07-29T01:02:21;240.37;;;225.73;;
12038;SDS011;6080;48.818;9.526;2022-07-29T01:04:47;303.33;;;285.50;;
12038;SDS011;6080;48.818;9.526;2022-07-29T01:07:13;355.55;;;333.55;;
12038;SDS011;6080;48.818;9.526;2022-07-29T01:09:40;151.45;;;142.75;;
12038;SDS011;6080;48.818;9.526;2022-07-29T01:12:07;175.20;;;165.50;;
12038;SDS011;6080;48.818;9.526;2022-07-29T01:14:33;91.60;;;86.60;;
12038;SDS011;6080;48.818;9.526;2022-07-29T01:17:02;26.70;;;24.63;;
12038;SDS011;6080;48.818;9.526;2022-07-29T01:31:24;79.13;;;74.70;;
12038;SDS011;6080;48.818;9.526;2022-07-29T01:34:02;239.20;;;225.27;;
12038;SDS011;6080;48.818;9.526;2022-07-29T01:36:32;255.90;;;240.97;;
12038;SDS011;6080;48.818;9.526;2022-07-29T01:39:10;229.00;;;215.73;;
12038;SDS011;6080;48.818;9.526;2022-07-29T01:44:57;182.97;;;172.90;;
12038;SDS011;6080;48.818;9.526;2022-07-29T01:47:43;163.53;;;154.57;;
12038;SDS011;6080;48.818;9.526;2022-07-29T01:50:34;149.37;;;141.10;;
12038;SDS011;6080;48.818;9.526;2022-07-29T01:53:04;143.17;;;135.33;;
12038;SDS011;6080;48.818;9.526;2022-07-29T01:55:34;151.80;;;143.27;;
12038;SDS011;6080;48.818;9.526;2022-07-29T01:58:04;146.87;;;138.63;;
12038;SDS011;6080;48.818;9.526;2022-07-29T02:00:32;150.43;;;142.03;;
12038;SDS011;6080;48.818;9.526;2022-07-29T02:03:01;131.10;;;123.27;;
12038;SDS011;6080;48.818;9.526;2022-07-29T02:05:30;138.60;;;131.00;;
12038;SDS011;6080;48.818;9.526;2022-07-29T02:07:59;166.50;;;157.70;;
12038;SDS011;6080;48.818;9.526;2022-07-29T02:10:28;147.03;;;138.73;;
12038;SDS011;6080;48.818;9.526;2022-07-29T02:12:56;132.07;;;124.77;;
12038;SDS011;6080;48.818;9.526;2022-07-29T02:15:27;131.70;;;124.57;;
12038;SDS011;6080;48.818;9.526;2022-07-29T02:17:55;188.87;;;178.13;;
12038;SDS011;6080;48.818;9.526;2022-07-29T02:20:25;124.20;;;117.00;;
12038;SDS011;6080;48.818;9.526;2022-07-29T02:22:52;91.30;;;85.97;;
12038;SDS011;6080;48.818;9.526;2022-07-29T02:25:20;153.40;;;144.97;;
12038;SDS011;6080;48.818;9.526;2022-07-29T02:27:48;163.47;;;154.53;;
12038;SDS011;6080;48.818;9.526;2022-07-29T02:30:16;149.10;;;141.03;;
12038;SDS011;6080;48.818;9.526;2022-07-29T02:32:44;145.20;;;137.17;;
12038;SDS011;6080;48.818;9.526;2022-07-29T02:35:12;97.90;;;92.03;;
12038;SDS011;6080;48.818;9.526;2022-07-29T02:37:41;82.87;;;78.20;;
12038;SDS011;6080;48.818;9.526;2022-07-29T02:40:12;73.03;;;68.77;;
12038;SDS011;6080;48.818;9.526;2022-07-29T02:42:41;132.83;;;125.43;;
12038;SDS011;6080;48.818;9.526;2022-07-29T02:45:09;99.83;;;93.97;;
12038;SDS011;6080;48.818;9.526;2022-07-29T02:47:46;74.80;;;70.53;;
12038;SDS011;6080;48.818;9.526;2022-07-29T02:50:22;140.00;;;132.50;;
12038;SDS011;6080;48.818;9.526;2022-07-29T02:52:59;62.43;;;58.87;;
12038;SDS011;6080;48.818;9.526;2022-07-29T02:56:01;44.80;;;42.10;;
12038;SDS011;6080;48.818;9.526;2022-07-29T02:58:46;43.73;;;40.77;;
12038;SDS011;6080;48.818;9.526;2022-07-29T03:01:24;33.73;;;31.33;;
12038;SDS011;6080;48.818;9.526;2022-07-29T03:03:54;33.30;;;30.93;;
12038;SDS011;6080;48.818;9.526;2022-07-29T03:06:21;40.53;;;38.20;;
12038;SDS011;6080;48.818;9.526;2022-07-29T03:08:50;42.00;;;39.40;;
12038;SDS011;6080;48.818;9.526;2022-07-29T03:11:17;40.70;;;38.13;;
12038;SDS011;6080;48.818;9.526;2022-07-29T03:13:44;43.30;;;40.80;;
12038;SDS011;6080;48.818;9.526;2022-07-29T03:16:10;42.73;;;40.07;;
12038;SDS011;6080;48.818;9.526;2022-07-29T03:18:38;26.53;;;24.83;;
12038;SDS011;6080;48.818;9.526;2022-07-29T03:21:04;26.70;;;24.70;;
12038;SDS011;6080;48.818;9.526;2022-07-29T03:23:30;36.20;;;33.47;;
12038;SDS011;6080;48.818;9.526;2022-07-29T03:25:56;95.53;;;90.30;;
12038;SDS011;6080;48.818;9.526;2022-07-29T03:28:22;39.23;;;36.87;;
12038;SDS011;6080;48.818;9.526;2022-07-29T03:30:48;29.77;;;27.87;;
12038;SDS011;6080;48.818;9.526;2022-07-29T03:33:14;26.83;;;24.77;;
12038;SDS011;6080;48.818;9.526;2022-07-29T03:35:41;23.00;;;20.70;;
12038;SDS011;6080;48.818;9.526;2022-07-29T03:38:07;27.93;;;26.13;;
12038;SDS011;6080;48.818;9.526;2022-07-29T03:40:52;47.10;;;44.37;;
12038;SDS011;6080;48.818;9.526;2022-07-29T03:43:21;36.93;;;34.57;;
12038;SDS011;6080;48.818;9.526;2022-07-29T03:45:49;53.93;;;50.97;;
12038;SDS011;6080;48.818;9.526;2022-07-29T03:48:19;146.27;;;138.60;;
12038;SDS011;6080;48.818;9.526;2022-07-29T03:50:47;72.77;;;68.67;;
12038;SDS011;6080;48.818;9.526;2022-07-29T03:53:14;34.70;;;32.63;;
12038;SDS011;6080;48.818;9.526;2022-07-29T03:55:41;28.20;;;26.30;;
12038;SDS011;6080;48.818;9.526;2022-07-29T03:58:10;36.83;;;34.63;;
12038;SDS011;6080;48.818;9.526;2022-07-29T04:00:38;67.50;;;63.70;;
12038;SDS011;6080;48.818;9.526;2022-07-29T04:03:05;48.97;;;45.90;;
12038;SDS011;6080;48.818;9.526;2022-07-29T04:05:31;25.77;;;24.10;;
12038;SDS011;6080;48.818;9.526;2022-07-29T04:07:57;22.93;;;21.33;;
12038;SDS011;6080;48.818;9.526;2022-07-29T04:10:23;49.43;;;45.93;;
12038;SDS011;6080;48.818;9.526;2022-07-29T04:12:49;69.03;;;64.77;;
12038;SDS011;6080;48.818;9.526;2022-07-29T04:15:15;19.60;;;18.23;;
12038;SDS011;6080;48.818;9.526;2022-07-29T04:17:40;26.43;;;24.83;;
12038;SDS011;6080;48.818;9.526;2022-07-29T04:20:06;67.10;;;63.03;;
12038;SDS011;6080;48.818;9.526;2022-07-29T04:22:33;80.27;;;75.63;;
12038;SDS011;6080;48.818;9.526;2022-07-29T04:24:59;112.57;;;106.80;;
12038;SDS011;6080;48.818;9.526;2022-07-29T04:27:24;40.03;;;37.57;;
12038;SDS011;6080;48.818;9.526;2022-07-29T04:29:51;21.00;;;19.00;;
12038;SDS011;6080;48.818;9.526;2022-07-29T04:32:17;15.47;;;14.07;;
12038;SDS011;6080;48.818;9.526;2022-07-29T04:34:42;78.83;;;73.60;;
12038;SDS011;6080;48.818;9.526;2022-07-29T04:37:10;107.50;;;101.07;;
12038;SDS011;6080;48.818;9.526;2022-07-29T04:39:36;48.27;;;45.33;;
12038;SDS011;6080;48.818;9.526;2022-07-29T04:42:02;26.07;;;24.37;;
12038;SDS011;6080;48.818;9.526;2022-07-29T04:44:29;260.90;;;246.77;;
12038;SDS011;6080;48.818;9.526;2022-07-29T04:46:55;303.00;;;286.50;;
12038;SDS011;6080;48.818;9.526;2022-07-29T04:49:21;156.77;;;147.90;;
12038;SDS011;6080;48.818;9.526;2022-07-29T04:51:47;97.77;;;92.27;;
12038;SDS011;6080;48.818;9.526;2022-07-29T04:54:14;63.17;;;59.20;;
12038;SDS011;6080;48.818;9.526;2022-07-29T04:56:40;53.47;;;50.17;;
12038;SDS011;6080;48.818;9.526;2022-07-29T04:59:06;35.13;;;33.00;;
12038;SDS011;6080;48.818;9.526;2022-07-29T05:01:32;19.43;;;17.97;;
12038;SDS011;6080;48.818;9.526;2022-07-29T05:03:59;25.03;;;23.33;;
12038;SDS011;6080;48.818;9.526;2022-07-29T05:06:25;24.87;;;22.80;;
12038;SDS011;6080;48.818;9.526;2022-07-29T05:08:51;32.53;;;30.20;;
12038;SDS011;6080;48.818;9.526;2022-07-29T05:11:16;104.10;;;96.97;;
12038;SDS011;6080;48.818;9.526;2022-07-29T05:13:42;132.13;;;123.77;;
12038;SDS011;6080;48.818;9.526;2022-07-29T05:16:08;30.40;;;27.47;;
12038;SDS011;6080;48.818;9.526;2022-07-29T05:18:35;53.03;;;48.43;;
12038;SDS011;6080;48.818;9.526;2022-07-29T05:21:00;36.03;;;32.33;;
12038;SDS011;6080;48.818;9.526;2022-07-29T05:23:26;26.80;;;22.63;;
12038;SDS011;6080;48.818;9.526;2022-07-29T05:25:52;35.03;;;30.63;;
12038;SDS011;6080;48.818;9.526;2022-07-29T05:28:18;34.10;;;23.07;;
12038;SDS011;6080;48.818;9.526;2022-07-29T05:30:44;88.93;;;82.93;;
12038;SDS011;6080;48.818;9.526;2022-07-29T05:33:10;72.20;;;67.13;;
12038;SDS011;6080;48.818;9.526;2022-07-29T05:35:36;27.50;;;17.97;;
12038;SDS011;6080;48.818;9.526;2022-07-29T05:38:02;94.97;;;88.50;;
12038;SDS011;6080;48.818;9.526;2022-07-29T05:40:29;133.60;;;124.90;;
12038;SDS011;6080;48.818;9.526;2022-07-29T05:42:55;339.77;;;319.60;;
12038;SDS011;6080;48.818;9.526;2022-07-29T05:45:22;360.90;;;339.47;;
12038;SDS011;6080;48.818;9.526;2022-07-29T05:47:49;189.63;;;178.73;;
12038;SDS011;6080;48.818;9.526;2022-07-29T05:50:15;32.10;;;30.03;;
12038;SDS011;6080;48.818;9.526;2022-07-29T05:52:41;63.43;;;59.87;;
12038;SDS011;6080;48.818;9.526;2022-07-29T05:55:06;37.37;;;34.57;;
12038;SDS011;6080;48.818;9.526;2022-07-29T05:57:33;49.77;;;46.37;;
12038;SDS011;6080;48.818;9.526;2022-07-29T05:59:59;19.73;;;18.30;;
12038;SDS011;6080;48.818;9.526;2022-07-29T06:02:25;36.97;;;34.33;;
12038;SDS011;6080;48.818;9.526;2022-07-29T06:04:51;15.88;;;14.57;;
12038;SDS011;6080;48.818;9.526;2022-07-29T06:07:17;68.30;;;64.65;;
12038;SDS011;6080;48.818;9.526;2022-07-29T06:09:43;109.25;;;103.38;;
12038;SDS011;6080;48.818;9.526;2022-07-29T06:12:09;39.88;;;37.67;;
12038;SDS011;6080;48.818;9.526;2022-07-29T06:14:35;28.02;;;26.17;;
12038;SDS011;6080;48.818;9.526;2022-07-29T06:17:04;13.90;;;13.05;;
12038;SDS011;6080;48.818;9.526;2022-07-29T06:19:30;10.63;;;9.75;;
12038;SDS011;6080;48.818;9.526;2022-07-29T06:21:58;13.88;;;13.10;;
12038;SDS011;6080;48.818;9.526;2022-07-29T06:24:24;44.85;;;42.55;;
12038;SDS011;6080;48.818;9.526;2022-07-29T06:26:50;33.33;;;31.48;;
12038;SDS011;6080;48.818;9.526;2022-07-29T06:29:16;38.70;;;36.55;;
12038;SDS011;6080;48.818;9.526;2022-07-29T06:31:42;80.78;;;76.57;;
12038;SDS011;6080;48.818;9.526;2022-07-29T06:34:07;45.78;;;43.33;;
12038;SDS011;6080;48.818;9.526;2022-07-29T06:36:34;59.95;;;56.90;;
12038;SDS011;6080;48.818;9.526;2022-07-29T06:39:05;50.63;;;47.90;;
12038;SDS011;6080;48.818;9.526;2022-07-29T06:41:32;151.77;;;144.13;;
12038;SDS011;6080;48.818;9.526;2022-07-29T06:43:58;145.38;;;137.98;;
12038;SDS011;6080;48.818;9.526;2022-07-29T06:46:24;29.17;;;27.65;;
12038;SDS011;6080;48.818;9.526;2022-07-29T06:48:50;6.75;;;6.20;;
12038;SDS011;6080;48.818;9.526;2022-07-29T06:51:17;7.90;;;7.20;;
12038;SDS011;6080;48.818;9.526;2022-07-29T06:53:43;9.90;;;8.93;;
12038;SDS011;6080;48.818;9.526;2022-07-29T06:56:09;11.35;;;10.52;;
12038;SDS011;6080;48.818;9.526;2022-07-29T06:58:35;25.55;;;24.05;;
12038;SDS011;6080;48.818;9.526;2022-07-29T07:01:02;12.45;;;11.45;;
12038;SDS011;6080;48.818;9.526;2022-07-29T07:03:29;16.50;;;15.48;;
12038;SDS011;6080;48.818;9.526;2022-07-29T07:05:56;21.60;;;14.05;;
12038;SDS011;6080;48.818;9.526;2022-07-29T07:08:22;15.63;;;14.82;;
12038;SDS011;6080;48.818;9.526;2022-07-29T07:10:49;15.98;;;14.93;;
12038;SDS011;6080;48.818;9.526;2022-07-29T07:13:15;21.50;;;20.33;;
12038;SDS011;6080;48.818;9.526;2022-07-29T07:15:42;19.15;;;17.60;;
12038;SDS011;6080;48.818;9.526;2022-07-29T07:18:10;24.33;;;22.77;;
12038;SDS011;6080;48.818;9.526;2022-07-29T07:20:36;15.88;;;15.00;;
12038;SDS011;6080;48.818;9.526;2022-07-29T07:23:02;11.38;;;10.70;;
12038;SDS011;6080;48.818;9.526;2022-07-29T07:25:30;23.08;;;21.80;;
12038;SDS011;6080;48.818;9.526;2022-07-29T07:27:55;11.68;;;10.98;;
12038;SDS011;6080;48.818;9.526;2022-07-29T07:30:21;43.03;;;40.92;;
12038;SDS011;6080;48.818;9.526;2022-07-29T07:32:48;47.33;;;44.92;;
12038;SDS011;6080;48.818;9.526;2022-07-29T07:35:14;14.38;;;13.43;;
12038;SDS011;6080;48.818;9.526;2022-07-29T07:37:40;11.18;;;10.57;;
12038;SDS011;6080;48.818;9.526;2022-07-29T07:40:07;12.27;;;11.57;;
12038;SDS011;6080;48.818;9.526;2022-07-29T07:42:34;11.63;;;11.02;;
12038;SDS011;6080;48.818;9.526;2022-07-29T07:45:00;11.73;;;10.90;;
12038;SDS011;6080;48.818;9.526;2022-07-29T07:47:26;10.65;;;9.88;;
12038;SDS011;6080;48.818;9.526;2022-07-29T07:49:52;25.92;;;24.30;;
12038;SDS011;6080;48.818;9.526;2022-07-29T07:52:19;12.60;;;11.95;;
12038;SDS011;6080;48.818;9.526;2022-07-29T07:54:46;24.42;;;22.77;;
12038;SDS011;6080;48.818;9.526;2022-07-29T07:57:12;28.17;;;26.73;;
12038;SDS011;6080;48.818;9.526;2022-07-29T07:59:40;31.25;;;29.65;;
12038;SDS011;6080;48.818;9.526;2022-07-29T08:02:06;19.75;;;18.58;;
12038;SDS011;6080;48.818;9.526;2022-07-29T08:04:33;11.23;;;10.63;;
12038;SDS011;6080;48.818;9.526;2022-07-29T08:06:59;17.20;;;16.30;;
12038;SDS011;6080;48.818;9.526;2022-07-29T08:09:26;20.88;;;19.88;;
12038;SDS011;6080;48.818;9.526;2022-07-29T08:11:53;23.30;;;21.90;;
12038;SDS011;6080;48.818;9.526;2022-07-29T08:14:19;14.50;;;13.77;;
12038;SDS011;6080;48.818;9.526;2022-07-29T08:16:45;19.48;;;18.38;;
12038;SDS011;6080;48.818;9.526;2022-07-29T08:19:11;21.50;;;20.40;;
12038;SDS011;6080;48.818;9.526;2022-07-29T08:21:37;5.88;;;5.53;;
12038;SDS011;6080;48.818;9.526;2022-07-29T08:24:04;6.45;;;4.90;;
12038;SDS011;6080;48.818;9.526;2022-07-29T08:26:50;6.30;;;6.00;;
12038;SDS011;6080;48.818;9.526;2022-07-29T08:29:15;6.93;;;6.43;;
12038;SDS011;6080;48.818;9.526;2022-07-29T08:31:41;6.88;;;6.47;;
12038;SDS011;6080;48.818;9.526;2022-07-29T08:34:08;7.35;;;6.95;;
12038;SDS011;6080;48.818;9.526;2022-07-29T08:36:34;7.88;;;7.43;;
12038;SDS011;6080;48.818;9.526;2022-07-29T08:39:01;7.72;;;7.32;;
12038;SDS011;6080;48.818;9.526;2022-07-29T08:41:28;8.25;;;7.70;;
12038;SDS011;6080;48.818;9.526;2022-07-29T08:43:55;6.45;;;6.05;;
12038;SDS011;6080;48.818;9.526;2022-07-29T08:46:21;10.93;;;9.93;;
12038;SDS011;6080;48.818;9.526;2022-07-29T08:48:47;9.30;;;8.63;;
12038;SDS011;6080;48.818;9.526;2022-07-29T08:51:14;8.07;;;7.57;;
12038;SDS011;6080;48.818;9.526;2022-07-29T08:53:43;9.70;;;9.05;;
12038;SDS011;6080;48.818;9.526;2022-07-29T08:56:14;6.45;;;5.30;;
12038;SDS011;6080;48.818;9.526;2022-07-29T08:58:44;11.10;;;10.30;;
12038;SDS011;6080;48.818;9.526;2022-07-29T09:01:12;7.60;;;7.20;;
12038;SDS011;6080;48.818;9.526;2022-07-29T09:03:41;17.20;;;16.30;;
12038;SDS011;6080;48.818;9.526;2022-07-29T09:06:13;13.02;;;12.13;;
12038;SDS011;6080;48.818;9.526;2022-07-29T09:08:40;18.38;;;17.40;;
12038;SDS011;6080;48.818;9.526;2022-07-29T09:11:06;20.13;;;19.02;;
12038;SDS011;6080;48.818;9.526;2022-07-29T09:13:32;28.30;;;26.75;;
12038;SDS011;6080;48.818;9.526;2022-07-29T09:15:59;11.45;;;10.82;;
12038;SDS011;6080;48.818;9.526;2022-07-29T09:18:44;9.30;;;8.77;;
12038;SDS011;6080;48.818;9.526;2022-07-29T09:21:14;5.47;;;5.18;;
12038;SDS011;6080;48.818;9.526;2022-07-29T09:26:32;14.88;;;6.10;;
12038;SDS011;6080;48.818;9.526;2022-07-29T09:29:07;5.55;;;5.25;;
12038;SDS011;6080;48.818;9.526;2022-07-29T09:31:35;7.30;;;6.80;;
12038;SDS011;6080;48.818;9.526;2022-07-29T09:34:03;7.97;;;7.57;;
12038;SDS011;6080;48.818;9.526;2022-07-29T09:36:29;7.43;;;6.68;;
12038;SDS011;6080;48.818;9.526;2022-07-29T09:38:59;6.95;;;6.22;;
12038;SDS011;6080;48.818;9.526;2022-07-29T09:41:26;14.35;;;13.40;;
12038;SDS011;6080;48.818;9.526;2022-07-29T09:43:53;7.53;;;7.03;;
12038;SDS011;6080;48.818;9.526;2022-07-29T09:46:20;5.32;;;5.00;;
12038;SDS011;6080;48.818;9.526;2022-07-29T09:48:45;6.63;;;6.10;;
12038;SDS011;6080;48.818;9.526;2022-07-29T09:51:38;5.93;;;5.53;;
12038;SDS011;6080;48.818;9.526;2022-07-29T09:56:51;19.60;;;18.52;;
12038;SDS011;6080;48.818;9.526;2022-07-29T09:59:18;20.00;;;18.65;;
12038;SDS011;6080;48.818;9.526;2022-07-29T10:01:45;20.48;;;19.25;;
12038;SDS011;6080;48.818;9.526;2022-07-29T10:04:11;14.43;;;13.70;;
12038;SDS011;6080;48.818;9.526;2022-07-29T10:06:56;29.75;;;28.13;;
12038;SDS011;6080;48.818;9.526;2022-07-29T10:09:27;35.97;;;34.13;;
12038;SDS011;6080;48.818;9.526;2022-07-29T10:12:03;21.10;;;19.90;;
12038;SDS011;6080;48.818;9.526;2022-07-29T10:14:32;12.00;;;11.00;;
12038;SDS011;6080;48.818;9.526;2022-07-29T10:16:59;6.82;;;6.38;;
12038;SDS011;6080;48.818;9.526;2022-07-29T10:19:26;7.53;;;7.00;;
12038;SDS011;6080;48.818;9.526;2022-07-29T10:21:55;18.33;;;17.25;;
12038;SDS011;6080;48.818;9.526;2022-07-29T10:24:24;7.85;;;7.25;;
12038;SDS011;6080;48.818;9.526;2022-07-29T10:26:52;8.20;;;7.55;;
12038;SDS011;6080;48.818;9.526;2022-07-29T10:29:21;7.15;;;6.45;;
12038;SDS011;6080;48.818;9.526;2022-07-29T10:31:49;8.40;;;7.70;;
12038;SDS011;6080;48.818;9.526;2022-07-29T10:34:52;9.75;;;9.07;;
12038;SDS011;6080;48.818;9.526;2022-07-29T10:40:34;13.07;;;11.93;;
12038;SDS011;6080;48.818;9.526;2022-07-29T10:43:34;22.73;;;21.45;;
12038;SDS011;6080;48.818;9.526;2022-07-29T10:46:03;15.50;;;13.95;;
12038;SDS011;6080;48.818;9.526;2022-07-29T10:48:30;11.80;;;11.00;;
12038;SDS011;6080;48.818;9.526;2022-07-29T10:51:02;8.07;;;7.47;;
12038;SDS011;6080;48.818;9.526;2022-07-29T10:56:25;8.18;;;7.50;;
12038;SDS011;6080;48.818;9.526;2022-07-29T11:01:50;6.78;;;6.32;;
12038;SDS011;6080;48.818;9.526;2022-07-29T11:04:25;6.78;;;6.20;;
12038;SDS011;6080;48.818;9.526;2022-07-29T11:07:08;6.32;;;5.93;;
12038;SDS011;6080;48.818;9.526;2022-07-29T11:09:34;8.07;;;7.50;;
12038;SDS011;6080;48.818;9.526;2022-07-29T11:12:00;11.88;;;10.98;;
12038;SDS011;6080;48.818;9.526;2022-07-29T11:17:17;17.83;;;16.67;;
12038;SDS011;6080;48.818;9.526;2022-07-29T11:19:43;18.42;;;17.27;;
12038;SDS011;6080;48.818;9.526;2022-07-29T11:22:10;36.85;;;34.58;;
12038;SDS011;6080;48.818;9.526;2022-07-29T11:24:37;25.60;;;24.10;;
12038;SDS011;6080;48.818;9.526;2022-07-29T11:29:39;10.20;;;9.38;;
12038;SDS011;6080;48.818;9.526;2022-07-29T11:32:14;18.27;;;17.08;;
12038;SDS011;6080;48.818;9.526;2022-07-29T11:34:42;60.22;;;56.72;;
12038;SDS011;6080;48.818;9.526;2022-07-29T11:47:26;17.90;;;16.90;;
12038;SDS011;6080;48.818;9.526;2022-07-29T11:49:55;33.67;;;31.45;;
12038;SDS011;6080;48.818;9.526;2022-07-29T11:52:23;130.13;;;123.57;;
12038;SDS011;6080;48.818;9.526;2022-07-29T11:54:57;40.63;;;38.17;;
12038;SDS011;6080;48.818;9.526;2022-07-29T11:57:26;15.95;;;14.50;;
12038;SDS011;6080;48.818;9.526;2022-07-29T11:59:53;10.43;;;8.43;;
12038;SDS011;6080;48.818;9.526;2022-07-29T12:02:20;33.05;;;30.65;;
12038;SDS011;6080;48.818;9.526;2022-07-29T12:04:53;17.05;;;15.85;;
12038;SDS011;6080;48.818;9.526;2022-07-29T12:07:27;23.13;;;21.38;;
12038;SDS011;6080;48.818;9.526;2022-07-29T12:09:56;74.97;;;70.82;;
12038;SDS011;6080;48.818;9.526;2022-07-29T12:12:22;50.92;;;48.08;;
12038;SDS011;6080;48.818;9.526;2022-07-29T12:14:48;33.95;;;31.98;;
12038;SDS011;6080;48.818;9.526;2022-07-29T12:17:26;216.75;;;204.65;;
12038;SDS011;6080;48.818;9.526;2022-07-29T12:19:57;278.90;;;263.80;;
12038;SDS011;6080;48.818;9.526;2022-07-29T12:22:25;199.18;;;188.35;;
12038;SDS011;6080;48.818;9.526;2022-07-29T12:24:53;192.07;;;180.38;;
12038;SDS011;6080;48.818;9.526;2022-07-29T12:27:20;546.30;;;508.95;;
12038;SDS011;6080;48.818;9.526;2022-07-29T12:29:59;440.30;;;415.05;;
12038;SDS011;6080;48.818;9.526;2022-07-29T12:33:01;233.63;;;220.55;;
12038;SDS011;6080;48.818;9.526;2022-07-29T12:35:20;201.50;;;190.63;;
12038;SDS011;6080;48.818;9.526;2022-07-29T12:37:47;186.98;;;176.60;;
12038;SDS011;6080;48.818;9.526;2022-07-29T12:40:15;220.32;;;208.38;;
12038;SDS011;6080;48.818;9.526;2022-07-29T12:45:31;164.55;;;155.38;;
12038;SDS011;6080;48.818;9.526;2022-07-29T12:47:56;135.07;;;127.57;;
12038;SDS011;6080;48.818;9.526;2022-07-29T12:50:22;51.50;;;48.22;;
12038;SDS011;6080;48.818;9.526;2022-07-29T12:52:49;105.03;;;99.55;;
12038;SDS011;6080;48.818;9.526;2022-07-29T12:55:14;97.78;;;92.55;;
12038;SDS011;6080;48.818;9.526;2022-07-29T12:57:44;50.03;;;46.78;;
12038;SDS011;6080;48.818;9.526;2022-07-29T13:00:12;131.00;;;122.75;;
12038;SDS011;6080;48.818;9.526;2022-07-29T13:02:40;185.00;;;174.60;;
12038;SDS011;6080;48.818;9.526;2022-07-29T13:05:08;68.82;;;64.78;;
12038;SDS011;6080;48.818;9.526;2022-07-29T13:07:35;70.00;;;65.97;;
12038;SDS011;6080;48.818;9.526;2022-07-29T13:10:15;39.53;;;37.15;;
12038;SDS011;6080;48.818;9.526;2022-07-29T13:13:03;92.60;;;87.28;;
12038;SDS011;6080;48.818;9.526;2022-07-29T13:15:35;65.43;;;61.85;;
12038;SDS011;6080;48.818;9.526;2022-07-29T13:20:57;11.65;;;10.60;;
12038;SDS011;6080;48.818;9.526;2022-07-29T13:23:34;85.05;;;80.38;;
12038;SDS011;6080;48.818;9.526;2022-07-29T13:26:07;68.43;;;64.80;;
12038;SDS011;6080;48.818;9.526;2022-07-29T13:28:34;132.18;;;125.75;;
12038;SDS011;6080;48.818;9.526;2022-07-29T13:31:00;72.95;;;69.18;;
12038;SDS011;6080;48.818;9.526;2022-07-29T13:33:26;150.73;;;142.80;;
12038;SDS011;6080;48.818;9.526;2022-07-29T13:35:52;154.25;;;146.60;;
12038;SDS011;6080;48.818;9.526;2022-07-29T13:38:18;109.95;;;104.18;;
12038;SDS011;6080;48.818;9.526;2022-07-29T13:40:44;91.53;;;86.63;;
12038;SDS011;6080;48.818;9.526;2022-07-29T13:43:10;80.28;;;76.20;;
12038;SDS011;6080;48.818;9.526;2022-07-29T13:45:36;129.45;;;123.20;;
12038;SDS011;6080;48.818;9.526;2022-07-29T13:48:03;78.65;;;74.55;;
12038;SDS011;6080;48.818;9.526;2022-07-29T13:50:31;174.10;;;165.23;;
12038;SDS011;6080;48.818;9.526;2022-07-29T13:52:57;206.38;;;195.75;;
12038;SDS011;6080;48.818;9.526;2022-07-29T13:55:24;316.65;;;299.48;;
12038;SDS011;6080;48.818;9.526;2022-07-29T13:57:50;165.93;;;157.77;;
12038;SDS011;6080;48.818;9.526;2022-07-29T14:00:16;89.88;;;85.45;;
12038;SDS011;6080;48.818;9.526;2022-07-29T14:02:42;22.60;;;21.20;;
12038;SDS011;6080;48.818;9.526;2022-07-29T14:05:08;44.17;;;42.03;;
12038;SDS011;6080;48.818;9.526;2022-07-29T14:07:35;46.83;;;44.22;;
12038;SDS011;6080;48.818;9.526;2022-07-29T14:10:03;113.45;;;107.82;;
12038;SDS011;6080;48.818;9.526;2022-07-29T14:12:30;60.80;;;57.75;;
12038;SDS011;6080;48.818;9.526;2022-07-29T14:14:56;110.80;;;105.20;;
12038;SDS011;6080;48.818;9.526;2022-07-29T14:17:21;124.40;;;118.22;;
12038;SDS011;6080;48.818;9.526;2022-07-29T14:19:48;118.68;;;112.30;;
12038;SDS011;6080;48.818;9.526;2022-07-29T14:22:14;413.02;;;390.67;;
12038;SDS011;6080;48.818;9.526;2022-07-29T14:24:40;340.15;;;322.90;;
12038;SDS011;6080;48.818;9.526;2022-07-29T14:27:06;78.65;;;74.63;;
12038;SDS011;6080;48.818;9.526;2022-07-29T14:29:32;40.25;;;38.15;;
12038;SDS011;6080;48.818;9.526;2022-07-29T14:31:59;43.13;;;40.97;;
12038;SDS011;6080;48.818;9.526;2022-07-29T14:34:25;56.65;;;53.70;;
12038;SDS011;6080;48.818;9.526;2022-07-29T14:36:51;55.85;;;52.80;;
12038;SDS011;6080;48.818;9.526;2022-07-29T14:39:19;16.08;;;15.00;;
12038;SDS011;6080;48.818;9.526;2022-07-29T14:41:45;59.60;;;56.50;;
12038;SDS011;6080;48.818;9.526;2022-07-29T14:44:11;350.25;;;329.55;;
12038;SDS011;6080;48.818;9.526;2022-07-29T14:46:37;36.92;;;34.80;;
12038;SDS011;6080;48.818;9.526;2022-07-29T14:49:03;55.45;;;52.63;;
12038;SDS011;6080;48.818;9.526;2022-07-29T14:51:29;212.15;;;201.20;;
12038;SDS011;6080;48.818;9.526;2022-07-29T14:53:55;56.28;;;52.80;;
12038;SDS011;6080;48.818;9.526;2022-07-29T14:56:21;27.45;;;25.90;;
12038;SDS011;6080;48.818;9.526;2022-07-29T14:58:47;29.20;;;27.48;;
12038;SDS011;6080;48.818;9.526;2022-07-29T15:01:13;12.07;;;10.88;;
12038;SDS011;6080;48.818;9.526;2022-07-29T15:03:39;236.32;;;223.77;;
12038;SDS011;6080;48.818;9.526;2022-07-29T15:06:05;84.90;;;80.32;;
12038;SDS011;6080;48.818;9.526;2022-07-29T15:08:31;236.07;;;223.52;;
12038;SDS011;6080;48.818;9.526;2022-07-29T15:10:57;148.30;;;140.45;;
12038;SDS011;6080;48.818;9.526;2022-07-29T15:13:25;183.50;;;173.95;;
12038;SDS011;6080;48.818;9.526;2022-07-29T15:15:51;169.15;;;160.45;;
12038;SDS011;6080;48.818;9.526;2022-07-29T15:18:17;39.38;;;37.15;;
12038;SDS011;6080;48.818;9.526;2022-07-29T15:20:42;35.88;;;33.92;;
12038;SDS011;6080;48.818;9.526;2022-07-29T15:23:11;7.78;;;7.28;;
12038;SDS011;6080;48.818;9.526;2022-07-29T15:25:37;10.15;;;7.00;;
12038;SDS011;6080;48.818;9.526;2022-07-29T15:28:04;8.13;;;7.45;;